Coronado, Arizona
Current Conditions -  °F | °C
As of 3:58 PM on Thursday 27 Nov 2014 (Local Time) from KDMA Reporting Station
Clear Clear  
Wind Chill: 82°   Ceiling: Unl
Heat Index: 82°   Visibility: 10mi
Dew Point: 20°   Wind: 7mph
Humidity: 10%   Direction: 110°ESE
Pressure: 30.11"   Gusts: NA
Location:  32.2154°N, 110.884°W
Report Text: KDMA 272258Z AUTO 11006KT 10SM CLR 28/M06 A3011 RMK AO2 SLP169 T02751065 $
Loading
Personal Weather Stations






























Interactive Weather Map New forecast layout! Learn more

10-Day Weather Forecast

Advertisements
Track Severe Weather on mobile